Time;durP1;ratioP1;P1;durP2;ratioP2;P2;SDS_P1;SDS_P2;PMS_P1;PMS_P2;Temp;Humidity;BMP_temperature;BMP_pressure;BME280_temperature;BME280_humidity;BME280_pressure;Samples;Min_cycle;Max_cycle;Signal;HPM_P1;HPM_P2
2022/04/23 00:00:44;;;;;;;11.52;9.65;;;;;;;3.80;100.00;91632.25;2098251;28;20020;-81
2022/04/23 00:01:45;;;;;;;11.00;9.90;;;;;;;3.76;100.00;91623.66;2097515;28;20021;-79
2022/04/23 00:02:46;;;;;;;10.80;9.65;;;;;;;3.90;100.00;91623.34;2089843;28;20066;-82
2022/04/23 00:03:47;;;;;;;13.00;9.55;;;;;;;3.84;100.00;91617.06;2101354;28;20154;-81
2022/04/23 00:04:48;;;;;;;15.73;9.77;;;;;;;3.90;100.00;91631.28;2098289;28;20028;-81
2022/04/23 00:05:49;;;;;;;12.45;9.80;;;;;;;3.78;100.00;91621.34;2098286;28;20052;-81
2022/04/23 00:06:50;;;;;;;12.95;9.55;;;;;;;3.74;100.00;91620.69;2089605;28;20021;-81
2022/04/23 00:07:51;;;;;;;12.48;10.15;;;;;;;3.78;100.00;91619.44;2089394;28;20469;-81
2022/04/23 00:08:52;;;;;;;10.80;9.68;;;;;;;3.82;100.00;91616.75;2081360;28;20053;-80
2022/04/23 00:09:53;;;;;;;10.63;9.52;;;;;;;3.79;100.00;91615.66;2089570;28;20056;-81
2022/04/23 00:10:54;;;;;;;13.43;10.25;;;;;;;3.70;100.00;91615.47;2081358;28;20025;-82
2022/04/23 00:11:56;;;;;;;12.45;9.93;;;;;;;3.73;100.00;91616.53;2089981;28;20383;-80
2022/04/23 00:12:56;;;;;;;12.10;9.55;;;;;;;3.68;100.00;91609.09;2081982;28;20030;-81
2022/04/23 00:13:57;;;;;;;14.48;9.80;;;;;;;3.70;100.00;91602.25;2089112;28;20142;-80
2022/04/23 00:14:58;;;;;;;10.10;9.10;;;;;;;3.73;100.00;91604.09;2098222;28;20032;-80
2022/04/23 00:16:00;;;;;;;13.48;9.73;;;;;;;3.64;100.00;91595.19;2089936;28;20025;-80
2022/04/23 00:17:02;;;;;;;10.73;9.50;;;;;;;3.69;100.00;91592.84;2090423;28;20028;-80
2022/04/23 00:18:10;;;;;;;13.05;9.90;;;;;;;3.58;100.00;91600.22;2090082;28;20024;-80
2022/04/23 00:19:11;;;;;;;13.18;9.82;;;;;;;3.70;100.00;91594.31;2092954;28;20017;-82
2022/04/23 00:20:13;;;;;;;11.63;9.75;;;;;;;3.64;100.00;91595.19;2098216;28;20032;-80
2022/04/23 00:21:14;;;;;;;11.02;9.48;;;;;;;3.57;100.00;91595.38;2090130;28;20021;-81
2022/04/23 00:22:17;;;;;;;11.57;9.48;;;;;;;3.62;100.00;91595.63;2089926;28;20025;-81
2022/04/23 00:23:18;;;;;;;11.68;9.60;;;;;;;3.66;100.00;91593.66;2099040;28;20420;-82
2022/04/23 00:24:19;;;;;;;10.50;9.40;;;;;;;3.64;100.00;91589.91;2106657;28;20077;-80
2022/04/23 00:25:20;;;;;;;11.80;10.55;;;;;;;3.83;100.00;91593.69;2089660;28;20056;-82
2022/04/23 00:26:21;;;;;;;11.57;9.95;;;;;;;3.78;100.00;91594.94;2100835;28;20020;-79
2022/04/23 00:27:22;;;;;;;13.45;10.57;;;;;;;3.68;100.00;91595.88;2106616;28;20431;-81
2022/04/23 00:28:24;;;;;;;13.45;10.75;;;;;;;3.93;100.00;91596.09;2106567;28;20057;-80
2022/04/23 00:29:25;;;;;;;13.13;10.43;;;;;;;3.70;100.00;91598.88;2106572;28;20095;-79
2022/04/23 00:30:26;;;;;;;14.00;10.32;;;;;;;3.67;100.00;91603.06;2098098;28;20032;-82
2022/04/23 00:31:27;;;;;;;16.17;10.32;;;;;;;3.62;100.00;91600.16;2090055;28;20036;-80
2022/04/23 00:32:30;;;;;;;11.30;10.20;;;;;;;3.79;100.00;91601.69;2097834;28;20551;-80
2022/04/23 00:33:30;;;;;;;12.38;10.35;;;;;;;3.63;100.00;91601.66;2090044;28;20033;-82
2022/04/23 00:34:31;;;;;;;13.00;10.50;;;;;;;3.71;100.00;91600.34;2094277;28;20020;-80
2022/04/23 00:35:33;;;;;;;13.82;10.38;;;;;;;3.72;100.00;91604.47;2090766;28;20064;-80
2022/04/23 00:36:34;;;;;;;14.70;11.77;;;;;;;3.68;100.00;91601.16;2089988;28;20036;-79
2022/04/23 00:37:35;;;;;;;14.38;11.18;;;;;;;3.66;100.00;91601.56;2084164;28;20025;-80
2022/04/23 00:38:39;;;;;;;13.90;11.23;;;;;;;3.64;100.00;91601.22;2081338;28;20128;-82
2022/04/23 00:39:40;;;;;;;12.73;10.15;;;;;;;3.67;100.00;91600.41;2082735;28;20064;-81
2022/04/23 00:40:51;;;;;;;12.10;10.68;;;;;;;3.63;100.00;91596.38;2089900;28;20106;-80
2022/04/23 00:41:52;;;;;;;13.77;11.57;;;;;;;3.63;100.00;91596.38;2098846;28;20086;-80
2022/04/23 00:42:55;;;;;;;13.00;11.07;;;;;;;3.59;100.00;91593.03;2094273;28;20028;-80
2022/04/23 00:43:56;;;;;;;14.95;10.95;;;;;;;3.56;100.00;91599.13;2090507;28;20028;-80
2022/04/23 00:44:57;;;;;;;12.77;10.88;;;;;;;3.52;100.00;91588.66;2106213;28;20023;-80
2022/04/23 00:45:58;;;;;;;12.00;9.85;;;;;;;3.50;100.00;91591.69;2098068;28;20461;-81
2022/04/23 00:46:59;;;;;;;11.70;10.50;;;;;;;3.58;100.00;91591.56;2102518;28;20111;-81
2022/04/23 00:48:00;;;;;;;11.73;10.57;;;;;;;3.57;100.00;91590.09;2105927;28;20049;-80
2022/04/23 00:49:03;;;;;;;12.55;11.25;;;;;;;3.46;100.00;91590.28;2098793;28;20028;-80
2022/04/23 00:50:04;;;;;;;11.73;10.18;;;;;;;3.46;100.00;91585.75;2097623;28;20586;-80
2022/04/23 00:51:05;;;;;;;15.45;11.32;;;;;;;3.64;100.00;91590.66;2092597;28;20024;-81
2022/04/23 00:52:07;;;;;;;15.10;10.85;;;;;;;3.66;100.00;91596.28;2089379;28;20055;-81
2022/04/23 00:53:09;;;;;;;13.02;10.90;;;;;;;3.61;100.00;91593.41;2095185;28;20025;-81
2022/04/23 00:54:10;;;;;;;14.13;11.13;;;;;;;3.68;100.00;91585.31;2098143;28;20024;-79
2022/04/23 00:55:12;;;;;;;14.25;10.30;;;;;;;3.68;100.00;91578.13;2097987;28;20020;-80
2022/04/23 00:56:13;;;;;;;13.05;11.13;;;;;;;3.58;100.00;91581.00;2096623;28;20044;-81
2022/04/23 00:57:14;;;;;;;14.25;11.38;;;;;;;3.50;100.00;91583.03;2089751;28;20078;-80
2022/04/23 00:58:16;;;;;;;13.20;11.77;;;;;;;3.48;100.00;91591.38;2089803;28;20063;-80
2022/04/23 00:59:17;;;;;;;12.60;11.30;;;;;;;3.45;100.00;91584.25;2089796;28;20056;-82
2022/04/23 01:00:18;;;;;;;13.15;11.15;;;;;;;3.55;100.00;91587.81;2084620;28;20838;-80
2022/04/23 01:01:23;;;;;;;13.20;11.32;;;;;;;3.42;100.00;91590.34;2101828;28;20413;-79
2022/04/23 01:02:24;;;;;;;12.82;10.95;;;;;;;3.36;100.00;91591.97;2101692;28;20024;-81
2022/04/23 01:03:25;;;;;;;13.60;11.30;;;;;;;3.38;100.00;91594.97;2085389;28;20469;-81
2022/04/23 01:04:30;;;;;;;12.18;10.88;;;;;;;3.27;100.00;91594.44;2098092;28;20742;-81
2022/04/23 01:05:31;;;;;;;14.60;11.32;;;;;;;3.31;100.00;91595.09;2106167;28;20439;-81
2022/04/23 01:06:34;;;;;;;12.50;10.73;;;;;;;3.35;100.00;91590.50;2093518;28;20021;-80
2022/04/23 01:07:42;;;;;;;14.18;11.40;;;;;;;3.31;100.00;91584.53;2106273;28;20482;-80
2022/04/23 01:08:45;;;;;;;14.13;11.77;;;;;;;3.39;100.00;91585.16;2098933;28;20024;-81
2022/04/23 01:09:48;;;;;;;15.35;12.10;;;;;;;3.33;100.00;91594.69;2090456;28;20119;-80
2022/04/23 01:10:49;;;;;;;11.93;10.63;;;;;;;3.35;100.00;91595.03;2097144;28;20059;-81
2022/04/23 01:11:51;;;;;;;14.00;11.90;;;;;;;3.32;100.00;91593.22;2106034;28;20529;-81
2022/04/23 01:12:53;;;;;;;14.00;11.32;;;;;;;3.34;100.00;91593.56;2089537;28;20040;-82
2022/04/23 01:13:55;;;;;;;13.05;11.55;;;;;;;3.35;100.00;91593.13;2089051;28;20082;-80
2022/04/23 01:15:00;;;;;;;12.52;11.32;;;;;;;3.32;100.00;91601.13;2089774;28;20027;-82
2022/04/23 01:16:07;;;;;;;14.07;10.90;;;;;;;3.31;100.00;91597.00;2098267;28;20078;-79
2022/04/23 01:17:08;;;;;;;14.10;11.63;;;;;;;3.25;100.00;91594.09;2090322;28;20508;-79
2022/04/23 01:18:09;;;;;;;12.48;11.05;;;;;;;3.23;100.00;91594.50;2082957;28;20107;-79
2022/04/23 01:19:10;;;;;;;14.05;11.48;;;;;;;3.23;100.00;91599.78;2089723;28;20025;-82
2022/04/23 01:20:13;;;;;;;13.82;11.10;;;;;;;3.18;100.00;91594.22;2087553;28;20029;-82
2022/04/23 01:21:14;;;;;;;12.65;11.35;;;;;;;3.23;100.00;91591.09;2098190;28;20098;-82
2022/04/23 01:22:24;;;;;;;14.32;11.20;;;;;;;3.18;100.00;91591.59;2106236;28;20121;-80
2022/04/23 01:23:25;;;;;;;14.15;11.82;;;;;;;3.18;100.00;91594.22;2097732;28;20389;-81
2022/04/23 01:24:27;;;;;;;12.55;10.90;;;;;;;3.21;100.00;91594.16;2093829;28;20039;-80
2022/04/23 01:25:30;;;;;;;15.63;11.10;;;;;;;3.19;100.00;91587.78;2106030;28;20024;-81
2022/04/23 01:26:32;;;;;;;14.32;11.55;;;;;;;3.18;100.00;91592.31;2101128;28;20522;-80
2022/04/23 01:27:36;;;;;;;17.90;11.05;;;;;;;3.12;100.00;91599.25;2103022;28;20028;-79
2022/04/23 01:28:38;;;;;;;13.98;10.40;;;;;;;3.07;100.00;91596.31;2100879;28;20029;-81
2022/04/23 01:29:39;;;;;;;16.70;11.07;;;;;;;3.09;100.00;91600.03;2089734;28;20032;-81
2022/04/23 01:30:40;;;;;;;14.60;10.88;;;;;;;3.18;100.00;91594.22;2089473;28;20474;-79
2022/04/23 01:31:41;;;;;;;12.93;11.52;;;;;;;3.07;100.00;91598.94;2103949;28;20044;-79
2022/04/23 01:32:42;;;;;;;15.30;11.30;;;;;;;3.00;100.00;91597.19;2108262;28;20085;-79
2022/04/23 01:33:43;;;;;;;13.70;12.25;;;;;;;2.98;100.00;91605.50;2097758;28;20878;-81
2022/04/23 01:34:44;;;;;;;14.73;11.38;;;;;;;2.98;100.00;91600.22;2095318;28;20035;-79
2022/04/23 01:35:45;;;;;;;13.23;11.15;;;;;;;2.99;100.00;91595.72;2089383;28;20017;-82
2022/04/23 01:36:46;;;;;;;13.68;11.60;;;;;;;3.00;100.00;91602.47;2081357;28;20052;-82
2022/04/23 01:37:47;;;;;;;13.70;11.57;;;;;;;3.06;100.00;91600.09;2095986;28;20065;-80
2022/04/23 01:38:48;;;;;;;14.25;12.15;;;;;;;3.11;100.00;91597.00;2097364;28;20024;-81
2022/04/23 01:39:50;;;;;;;14.13;11.60;;;;;;;3.09;100.00;91596.66;2097903;28;20047;-83
2022/04/23 01:40:51;;;;;;;13.30;11.18;;;;;;;3.09;100.00;91600.03;2097915;28;20020;-79
2022/04/23 01:41:52;;;;;;;15.13;11.98;;;;;;;3.04;100.00;91603.16;2097759;28;20029;-79
2022/04/23 01:42:53;;;;;;;14.50;11.18;;;;;;;3.07;100.00;91606.88;2097660;28;20024;-81
2022/04/23 01:43:54;;;;;;;14.15;11.68;;;;;;;3.13;100.00;91599.97;2105933;28;20031;-81
2022/04/23 01:44:55;;;;;;;13.75;11.07;;;;;;;3.08;100.00;91592.53;2097795;28;20023;-80
2022/04/23 01:45:56;;;;;;;14.68;11.07;;;;;;;3.08;100.00;91597.81;2114350;28;20027;-81
2022/04/23 01:46:57;;;;;;;12.30;10.95;;;;;;;3.12;100.00;91601.13;2114460;28;20024;-81
2022/04/23 01:47:58;;;;;;;14.63;11.05;;;;;;;3.21;100.00;91598.69;2097581;28;20027;-81
2022/04/23 01:48:59;;;;;;;12.05;10.70;;;;;;;3.03;100.00;91596.41;2089402;28;20043;-81
2022/04/23 01:50:00;;;;;;;12.15;10.82;;;;;;;2.99;100.00;91607.00;2091874;28;20021;-83
2022/04/23 01:51:01;;;;;;;13.00;10.80;;;;;;;2.89;100.00;91602.66;2089265;28;20032;-82
2022/04/23 01:52:02;;;;;;;12.43;10.52;;;;;;;2.89;100.00;91599.28;2089291;28;20085;-82
2022/04/23 01:53:04;;;;;;;12.00;10.80;;;;;;;2.91;100.00;91600.38;2089379;28;20560;-81
2022/04/23 01:54:10;;;;;;;15.32;11.80;;;;;;;2.92;100.00;91598.47;2097543;28;20022;-80
2022/04/23 01:55:11;;;;;;;12.75;10.48;;;;;;;2.88;100.00;91598.53;2098354;28;20711;-81
2022/04/23 01:56:12;;;;;;;13.23;11.63;;;;;;;2.85;100.00;91598.59;2099157;28;20024;-82
2022/04/23 01:57:13;;;;;;;12.90;11.60;;;;;;;2.83;100.00;91593.72;2089381;28;20094;-80
2022/04/23 01:58:14;;;;;;;12.70;11.25;;;;;;;2.84;100.00;91600.47;2089372;28;20021;-80
2022/04/23 01:59:15;;;;;;;11.77;10.57;;;;;;;2.93;100.00;91599.94;2097488;28;20130;-82
2022/04/23 02:00:16;;;;;;;12.30;10.77;;;;;;;2.88;100.00;91600.41;2089355;28;20025;-79
2022/04/23 02:01:17;;;;;;;12.10;10.88;;;;;;;2.87;100.00;91610.22;2097343;28;20020;-82
2022/04/23 02:02:18;;;;;;;13.40;11.23;;;;;;;2.81;100.00;91601.31;2113768;28;20023;-80
2022/04/23 02:03:19;;;;;;;12.57;11.00;;;;;;;2.70;100.00;91603.38;2105899;28;20093;-81
2022/04/23 02:04:20;;;;;;;15.43;10.73;;;;;;;2.74;100.00;91601.41;2097248;28;20538;-79
2022/04/23 02:05:22;;;;;;;12.38;10.60;;;;;;;2.81;100.00;91603.94;2097583;28;20062;-79
2022/04/23 02:06:23;;;;;;;12.18;10.68;;;;;;;2.73;100.00;91599.94;2114347;28;20020;-79
2022/04/23 02:07:24;;;;;;;13.43;11.05;;;;;;;2.76;100.00;91602.50;2105897;28;20118;-81
2022/04/23 02:08:24;;;;;;;15.75;11.32;;;;;;;2.81;100.00;91601.31;2105829;28;20077;-82
2022/04/23 02:09:25;;;;;;;12.13;10.85;;;;;;;2.80;100.00;91599.78;2105837;28;20031;-80
2022/04/23 02:10:26;;;;;;;12.80;11.25;;;;;;;2.77;100.00;91600.63;2097461;28;20107;-81
2022/04/23 02:12:49;;;;;;;;;;;;;;;2.60;100.00;91599.03;2148875;27;20477;-81
2022/04/23 02:13:50;;;;;;;11.80;10.52;;;;;;;2.60;100.00;91597.13;2129413;27;19915;-82
2022/04/23 02:14:53;;;;;;;13.15;11.23;;;;;;;2.61;100.00;91593.34;2113204;27;20525;-80
2022/04/23 02:15:55;;;;;;;11.63;10.35;;;;;;;2.68;100.00;91598.50;2121874;27;20082;-80
2022/04/23 02:16:56;;;;;;;12.38;10.98;;;;;;;2.59;100.00;91598.28;2113249;28;20079;-81
2022/04/23 02:18:00;;;;;;;14.50;11.43;;;;;;;2.53;100.00;91600.63;2113213;28;20035;-80
2022/04/23 02:19:03;;;;;;;12.85;11.52;;;;;;;2.55;100.00;91604.75;2113551;28;20027;-82
2022/04/23 02:20:05;;;;;;;12.52;11.23;;;;;;;2.57;100.00;91602.47;2105415;28;20078;-83
2022/04/23 02:21:06;;;;;;;13.45;11.73;;;;;;;2.64;100.00;91600.47;2104981;28;20028;-81
2022/04/23 02:22:07;;;;;;;12.95;11.50;;;;;;;2.57;100.00;91605.84;2104749;28;20039;-81
2022/04/23 02:23:08;;;;;;;13.02;11.15;;;;;;;2.55;100.00;91597.59;2104659;28;20473;-80
2022/04/23 02:24:09;;;;;;;14.55;11.77;;;;;;;2.50;100.00;91598.81;2113044;28;20039;-80
2022/04/23 02:25:11;;;;;;;14.57;11.80;;;;;;;2.53;100.00;91595.34;2113101;28;20020;-80
2022/04/23 02:26:12;;;;;;;13.02;11.60;;;;;;;2.56;100.00;91606.25;2114172;27;20078;-82
2022/04/23 02:27:13;;;;;;;15.50;12.75;;;;;;;2.53;100.00;91605.16;2113088;28;20030;-80
2022/04/23 02:28:14;;;;;;;14.18;11.93;;;;;;;2.57;100.00;91603.19;2119908;27;20043;-82
2022/04/23 02:29:15;;;;;;;15.02;12.23;;;;;;;2.58;100.00;91593.41;2129987;27;20032;-80
2022/04/23 02:30:21;;;;;;;15.13;12.50;;;;;;;2.55;100.00;91594.19;2138643;27;20018;-81
2022/04/23 02:31:22;;;;;;;13.85;11.20;;;;;;;2.68;100.00;91603.03;2130658;27;20163;-80
2022/04/23 02:32:23;;;;;;;13.02;11.10;;;;;;;2.57;100.00;91595.28;2121428;28;20032;-80
2022/04/23 02:33:23;;;;;;;20.25;12.98;;;;;;;2.57;100.00;91597.94;2130001;27;20035;-79
2022/04/23 02:34:24;;;;;;;13.13;11.10;;;;;;;2.63;100.00;91591.03;2121500;27;20019;-81
2022/04/23 02:35:26;;;;;;;15.65;12.65;;;;;;;2.65;100.00;91595.91;2113021;28;20032;-82
2022/04/23 02:36:27;;;;;;;12.70;11.25;;;;;;;2.59;100.00;91600.91;2104790;27;20131;-82
2022/04/23 02:37:32;;;;;;;13.93;11.77;;;;;;;2.58;100.00;91596.03;2121048;27;20034;-80
2022/04/23 02:38:34;;;;;;;14.10;11.02;;;;;;;2.80;100.00;91593.78;2121864;27;20020;-82
2022/04/23 02:39:35;;;;;;;12.63;11.10;;;;;;;2.62;100.00;91588.81;2121505;28;20621;-81
2022/04/23 02:40:36;;;;;;;14.40;11.85;;;;;;;2.64;100.00;91586.53;2104669;28;20024;-82
2022/04/23 02:41:37;;;;;;;19.00;11.73;;;;;;;2.67;100.00;91586.44;2104437;28;20107;-81
2022/04/23 02:42:39;;;;;;;15.43;11.80;;;;;;;2.63;100.00;91582.38;2113069;27;20023;-80
2022/04/23 02:43:41;;;;;;;13.77;11.52;;;;;;;2.63;100.00;91583.13;2112988;28;20047;-80
2022/04/23 02:44:43;;;;;;;12.75;10.43;;;;;;;2.69;100.00;91583.41;2113342;27;20077;-81
2022/04/23 02:45:45;;;;;;;15.32;11.45;;;;;;;2.65;100.00;91580.84;2121326;28;20023;-81
2022/04/23 02:46:46;;;;;;;15.23;11.77;;;;;;;2.71;100.00;91584.50;2104774;28;20021;-81
2022/04/23 02:47:51;;;;;;;14.02;10.93;;;;;;;2.62;100.00;91586.16;2120058;27;20020;-82
2022/04/23 02:48:54;;;;;;;12.55;11.23;;;;;;;2.63;100.00;91585.75;2121402;28;20038;-81
2022/04/23 02:49:56;;;;;;;13.18;11.32;;;;;;;2.65;100.00;91580.84;2104139;28;20032;-79
2022/04/23 02:50:57;;;;;;;12.32;11.07;;;;;;;2.68;100.00;91587.22;2104477;28;20135;-82
2022/04/23 02:51:58;;;;;;;13.25;11.77;;;;;;;2.62;100.00;91581.63;2104440;28;20078;-82
2022/04/23 02:52:59;;;;;;;15.43;12.35;;;;;;;2.61;100.00;91582.78;2104617;28;20501;-80
2022/04/23 02:54:00;;;;;;;13.65;12.25;;;;;;;2.60;100.00;91583.19;2104555;28;20069;-80
2022/04/23 02:55:01;;;;;;;13.93;12.30;;;;;;;2.55;100.00;91578.38;2113035;28;20028;-81
2022/04/23 02:56:05;;;;;;;14.18;12.07;;;;;;;2.51;100.00;91576.56;2113194;27;20096;-79
2022/04/23 02:57:06;;;;;;;16.83;12.02;;;;;;;2.58;100.00;91577.56;2121934;27;20469;-80
2022/04/23 02:58:09;;;;;;;15.35;12.48;;;;;;;2.48;100.00;91571.34;2121508;27;20035;-82
2022/04/23 02:59:10;;;;;;;14.27;11.98;;;;;;;2.49;100.00;91570.19;2130021;27;20047;-81
2022/04/23 03:00:11;;;;;;;15.25;12.50;;;;;;;2.56;100.00;91574.59;2129780;27;20109;-81
2022/04/23 03:01:12;;;;;;;13.85;12.35;;;;;;;2.65;100.00;91570.28;2129687;27;20023;-80
2022/04/23 03:02:13;;;;;;;14.15;12.60;;;;;;;2.73;100.00;91569.03;2120845;27;20462;-80
2022/04/23 03:03:15;;;;;;;15.52;12.50;;;;;;;2.66;100.00;91571.03;2112875;27;20648;-81
2022/04/23 03:04:17;;;;;;;15.82;12.57;;;;;;;2.62;100.00;91571.09;2113133;27;20020;-81
2022/04/23 03:05:18;;;;;;;16.35;12.93;;;;;;;2.62;100.00;91565.81;2119539;28;20031;-80
2022/04/23 03:06:19;;;;;;;14.80;12.38;;;;;;;2.63;100.00;91566.56;2112642;28;20027;-79
2022/04/23 03:07:20;;;;;;;15.27;11.70;;;;;;;2.64;100.00;91563.53;2121433;27;20027;-80
2022/04/23 03:08:23;;;;;;;15.75;12.77;;;;;;;2.68;100.00;91563.47;2121329;28;20023;-80
2022/04/23 03:09:24;;;;;;;13.65;12.20;;;;;;;2.69;100.00;91563.06;2105036;28;20111;-82
2022/04/23 03:10:26;;;;;;;16.05;13.00;;;;;;;2.91;100.00;91562.69;2104445;28;20024;-82
2022/04/23 03:11:26;;;;;;;15.30;12.82;;;;;;;2.74;100.00;91562.59;2096142;28;20568;-80
2022/04/23 03:12:27;;;;;;;14.02;12.45;;;;;;;2.74;100.00;91564.47;2104334;28;20070;-82
2022/04/23 03:13:29;;;;;;;14.70;13.13;;;;;;;2.74;100.00;91565.22;2112068;28;20019;-82
2022/04/23 03:14:31;;;;;;;18.45;14.25;;;;;;;2.81;100.00;91566.25;2112301;27;20027;-81
2022/04/23 03:15:31;;;;;;;16.17;14.30;;;;;;;2.81;100.00;91572.28;2112968;28;20031;-81
2022/04/23 03:16:33;;;;;;;16.30;14.50;;;;;;;2.78;100.00;91573.09;2121209;27;20046;-81
2022/04/23 03:17:35;;;;;;;16.05;14.25;;;;;;;2.80;100.00;91573.41;2121050;28;20026;-81
2022/04/23 03:18:36;;;;;;;15.77;14.05;;;;;;;2.84;100.00;91568.06;2104232;28;20054;-80
2022/04/23 03:19:37;;;;;;;16.08;13.23;;;;;;;2.75;100.00;91565.97;2095896;28;20025;-81
2022/04/23 03:20:39;;;;;;;17.02;13.73;;;;;;;2.71;100.00;91563.38;2104354;28;20123;-80
2022/04/23 03:21:40;;;;;;;16.30;13.68;;;;;;;2.77;100.00;91558.41;2104752;28;20055;-81
2022/04/23 03:22:42;;;;;;;19.15;14.48;;;;;;;2.75;100.00;91560.69;2104313;28;20040;-80
2022/04/23 03:23:43;;;;;;;18.08;14.48;;;;;;;2.81;100.00;91563.59;2093173;28;20035;-80
2022/04/23 03:24:44;;;;;;;16.92;14.30;;;;;;;2.66;100.00;91563.13;2101244;28;20077;-79
2022/04/23 03:25:45;;;;;;;17.85;14.40;;;;;;;2.67;100.00;91561.97;2099540;28;20445;-79
2022/04/23 03:26:46;;;;;;;17.63;14.60;;;;;;;2.70;100.00;91555.88;2107275;28;20062;-79
2022/04/23 03:27:47;;;;;;;16.63;14.85;;;;;;;2.64;100.00;91566.16;2117234;27;20019;-81
2022/04/23 03:28:48;;;;;;;17.10;14.60;;;;;;;2.62;100.00;91557.16;2123973;27;20065;-81
2022/04/23 03:29:49;;;;;;;20.40;15.00;;;;;;;2.71;100.00;91563.38;2107076;28;20489;-80
2022/04/23 03:30:50;;;;;;;17.65;14.93;;;;;;;2.72;100.00;91561.50;2107613;28;20487;-81
2022/04/23 03:31:51;;;;;;;18.90;14.73;;;;;;;2.66;100.00;91563.13;2115285;28;20027;-81
2022/04/23 03:32:53;;;;;;;16.73;14.93;;;;;;;2.63;100.00;91564.66;2115412;28;20026;-82
2022/04/23 03:33:54;;;;;;;15.18;13.27;;;;;;;2.70;100.00;91558.53;2106473;28;20027;-80
2022/04/23 03:34:55;;;;;;;17.38;13.95;;;;;;;2.73;100.00;91568.28;2098786;28;20055;-80
2022/04/23 03:35:56;;;;;;;15.18;13.57;;;;;;;2.70;100.00;91566.44;2098466;28;20441;-81
2022/04/23 03:36:58;;;;;;;19.23;14.80;;;;;;;2.73;100.00;91555.09;2106891;28;20436;-81
2022/04/23 03:38:01;;;;;;;19.80;14.25;;;;;;;2.68;100.00;91571.38;2106256;28;20067;-80
2022/04/23 03:39:02;;;;;;;18.60;14.52;;;;;;;2.68;100.00;91564.22;2098687;28;20538;-80
2022/04/23 03:40:08;;;;;;;19.45;14.88;;;;;;;2.63;100.00;91562.03;2091239;28;20075;-80
2022/04/23 03:41:09;;;;;;;18.42;14.98;;;;;;;2.63;100.00;91563.91;2099357;28;20035;-80
2022/04/23 03:42:10;;;;;;;16.63;14.27;;;;;;;2.66;100.00;91560.47;2101480;28;20040;-80
2022/04/23 03:43:12;;;;;;;15.40;13.65;;;;;;;2.64;100.00;91560.16;2097541;28;20028;-80
2022/04/23 03:44:13;;;;;;;17.20;14.45;;;;;;;2.66;100.00;91557.84;2095073;28;20028;-81
2022/04/23 03:45:18;;;;;;;17.52;14.68;;;;;;;2.65;100.00;91566.91;2104318;28;20051;-80
2022/04/23 03:46:19;;;;;;;15.82;13.40;;;;;;;2.51;100.00;91567.91;2108000;27;20035;-81
2022/04/23 03:47:20;;;;;;;15.20;13.13;;;;;;;2.46;100.00;91566.47;2115187;28;20055;-81
2022/04/23 03:48:21;;;;;;;17.05;15.02;;;;;;;2.56;100.00;91562.16;2098471;28;20028;-81
2022/04/23 03:49:23;;;;;;;17.92;14.18;;;;;;;2.58;100.00;91565.13;2109537;28;20409;-80
2022/04/23 03:50:24;;;;;;;17.05;13.75;;;;;;;2.58;100.00;91561.75;2106337;28;20074;-80
2022/04/23 03:51:25;;;;;;;17.92;13.80;;;;;;;2.73;100.00;91561.09;2114770;28;20023;-81
2022/04/23 03:52:26;;;;;;;16.20;13.48;;;;;;;2.72;100.00;91566.75;2123635;27;20094;-81
2022/04/23 03:53:26;;;;;;;21.20;15.45;;;;;;;2.68;100.00;91563.47;2090114;28;20499;-82
2022/04/23 03:54:27;;;;;;;18.98;14.57;;;;;;;2.57;100.00;91558.38;2098417;28;20098;-81
2022/04/23 03:55:30;;;;;;;23.63;14.32;;;;;;;2.54;100.00;91556.53;2098323;28;20024;-81
2022/04/23 03:56:31;;;;;;;14.95;13.35;;;;;;;2.50;100.00;91556.59;2094363;28;20024;-81
2022/04/23 03:57:45;;;;;;;16.83;14.75;;;;;;;2.48;100.00;91560.78;2106669;28;20028;-80
2022/04/23 03:58:46;;;;;;;17.85;14.35;;;;;;;2.42;100.00;91557.13;2107729;28;20048;-80
2022/04/23 03:59:47;;;;;;;16.08;14.32;;;;;;;2.46;100.00;91550.66;2109440;28;20030;-80
2022/04/23 04:00:48;;;;;;;15.77;14.05;;;;;;;2.41;100.00;91548.44;2106123;28;20019;-80
2022/04/23 04:01:54;;;;;;;16.42;14.40;;;;;;;2.38;100.00;91549.28;2097168;28;20032;-80
2022/04/23 04:02:55;;;;;;;15.07;13.48;;;;;;;2.28;100.00;91560.72;2102811;27;20020;-80
2022/04/23 04:03:56;;;;;;;16.80;13.60;;;;;;;2.32;100.00;91547.50;2101647;28;20031;-80
2022/04/23 04:04:57;;;;;;;16.52;14.18;;;;;;;2.36;100.00;91550.81;2106634;28;20027;-81
2022/04/23 04:05:58;;;;;;;16.50;14.35;;;;;;;2.38;100.00;91551.16;2098026;28;20025;-81
2022/04/23 04:07:00;;;;;;;17.85;14.80;;;;;;;2.32;100.00;91550.13;2098334;28;20017;-81
2022/04/23 04:08:01;;;;;;;16.50;14.23;;;;;;;2.28;100.00;91550.19;2090249;28;20028;-81
2022/04/23 04:09:02;;;;;;;15.82;13.32;;;;;;;2.28;100.00;91544.91;2106894;28;20077;-80
2022/04/23 04:10:03;;;;;;;16.90;14.35;;;;;;;2.34;100.00;91540.69;2106676;28;20508;-81
2022/04/23 04:11:04;;;;;;;16.55;14.57;;;;;;;2.38;100.00;91536.09;2091256;28;20112;-81
2022/04/23 04:12:06;;;;;;;16.80;13.77;;;;;;;2.39;100.00;91542.84;2097918;28;20449;-82
2022/04/23 04:13:07;;;;;;;16.80;14.05;;;;;;;2.35;100.00;91539.53;2090247;28;20402;-81
2022/04/23 04:14:09;;;;;;;16.17;14.38;;;;;;;2.40;100.00;91536.41;2097596;28;20025;-80
2022/04/23 04:15:11;;;;;;;18.92;14.38;;;;;;;2.31;100.00;91546.00;2098351;28;20021;-80
2022/04/23 04:16:13;;;;;;;16.27;14.55;;;;;;;2.20;100.00;91539.03;2090231;28;20049;-82
2022/04/23 04:17:15;;;;;;;15.50;13.90;;;;;;;2.20;100.00;91543.56;2100777;28;20025;-81
2022/04/23 04:18:17;;;;;;;15.65;13.30;;;;;;;2.32;100.00;91545.59;2106789;28;20023;-82
2022/04/23 04:19:19;;;;;;;16.52;14.30;;;;;;;2.40;100.00;91543.59;2106623;28;20024;-79
2022/04/23 04:20:21;;;;;;;16.90;14.85;;;;;;;2.45;100.00;91548.41;2105796;28;20027;-81
2022/04/23 04:21:22;;;;;;;16.23;14.10;;;;;;;2.37;100.00;91544.38;2106049;28;20073;-80
2022/04/23 04:22:23;;;;;;;16.85;15.05;;;;;;;2.39;100.00;91553.41;2114991;28;20051;-81
2022/04/23 04:23:26;;;;;;;16.77;14.85;;;;;;;2.22;100.00;91549.16;2115032;28;20028;-81
2022/04/23 04:24:27;;;;;;;17.10;14.32;;;;;;;2.31;100.00;91546.00;2114733;28;20027;-82
2022/04/23 04:25:29;;;;;;;15.48;13.70;;;;;;;2.30;100.00;91542.63;2089655;28;20064;-81
2022/04/23 04:26:31;;;;;;;17.70;14.38;;;;;;;2.34;100.00;91553.13;2094284;28;20027;-80
2022/04/23 04:27:33;;;;;;;17.67;15.48;;;;;;;2.34;100.00;91542.56;2107214;27;20016;-81
2022/04/23 04:28:35;;;;;;;17.67;14.50;;;;;;;2.39;100.00;91539.47;2106535;28;20019;-81
2022/04/23 04:29:36;;;;;;;17.17;14.95;;;;;;;2.32;100.00;91544.84;2106715;28;20031;-80
2022/04/23 04:31:57;;;;;;;18.02;15.07;;;;;;;2.27;100.00;91540.78;2103231;28;20021;-81
2022/04/23 04:32:58;;;;;;;19.77;14.90;;;;;;;2.31;100.00;91546.75;2098044;28;20037;-80
2022/04/23 04:33:58;;;;;;;19.67;14.68;;;;;;;2.37;100.00;91547.78;2098063;28;20054;-80
2022/04/23 04:35:00;;;;;;;18.08;13.77;;;;;;;2.40;100.00;91548.88;2106316;28;20027;-80
2022/04/23 04:36:02;;;;;;;18.83;15.82;;;;;;;2.41;100.00;91543.19;2109812;28;20023;-80
2022/04/23 04:37:10;;;;;;;19.63;15.07;;;;;;;2.43;100.00;91540.16;2106739;28;20024;-80
2022/04/23 04:38:11;;;;;;;16.85;14.68;;;;;;;2.48;100.00;91544.97;2108973;27;20023;-80
2022/04/23 04:39:13;;;;;;;15.60;13.95;;;;;;;2.46;100.00;91545.38;2106343;28;20472;-80
2022/04/23 04:40:14;;;;;;;18.05;15.35;;;;;;;2.43;100.00;91540.91;2098094;28;20021;-80
2022/04/23 04:41:15;;;;;;;18.50;15.27;;;;;;;2.42;100.00;91546.59;2089802;28;20120;-81
2022/04/23 04:42:16;;;;;;;19.17;14.80;;;;;;;2.41;100.00;91547.72;2098156;28;20020;-80
2022/04/23 04:43:17;;;;;;;19.27;14.50;;;;;;;2.35;100.00;91544.06;2098140;28;20028;-79
2022/04/23 04:44:18;;;;;;;17.15;14.05;;;;;;;2.38;100.00;91543.25;2098063;28;20024;-81
2022/04/23 04:45:19;;;;;;;20.38;16.13;;;;;;;2.37;100.00;91545.16;2106416;28;20023;-81
2022/04/23 04:46:20;;;;;;;20.45;16.08;;;;;;;2.41;100.00;91548.44;2106287;28;20472;-80
2022/04/23 04:47:21;;;;;;;16.35;14.20;;;;;;;2.51;100.00;91542.28;2098075;28;20025;-80